sensor_id;sensor_type;location;lat;lon;timestamp;P1;durP1;ratioP1;P2;durP2;ratioP2
13641;SDS011;6894;52.196;9.904;2022-07-04T00:01:20;0.70;;;0.70;;
13641;SDS011;6894;52.196;9.904;2022-07-04T00:03:47;0.40;;;0.40;;
13641;SDS011;6894;52.196;9.904;2022-07-04T00:06:14;1.17;;;0.90;;
13641;SDS011;6894;52.196;9.904;2022-07-04T00:08:41;0.80;;;0.80;;
13641;SDS011;6894;52.196;9.904;2022-07-04T00:11:07;1.83;;;0.70;;
13641;SDS011;6894;52.196;9.904;2022-07-04T00:13:35;0.97;;;0.67;;
13641;SDS011;6894;52.196;9.904;2022-07-04T00:16:02;1.93;;;0.77;;
13641;SDS011;6894;52.196;9.904;2022-07-04T00:18:29;1.37;;;0.70;;
13641;SDS011;6894;52.196;9.904;2022-07-04T00:20:56;1.37;;;0.80;;
13641;SDS011;6894;52.196;9.904;2022-07-04T00:23:23;1.63;;;0.70;;
13641;SDS011;6894;52.196;9.904;2022-07-04T00:25:50;1.80;;;0.70;;
13641;SDS011;6894;52.196;9.904;2022-07-04T00:28:16;1.27;;;0.67;;
13641;SDS011;6894;52.196;9.904;2022-07-04T00:30:44;1.03;;;0.63;;
13641;SDS011;6894;52.196;9.904;2022-07-04T00:33:11;1.40;;;0.73;;
13641;SDS011;6894;52.196;9.904;2022-07-04T00:35:38;5.63;;;0.97;;
13641;SDS011;6894;52.196;9.904;2022-07-04T00:38:05;1.67;;;1.00;;
13641;SDS011;6894;52.196;9.904;2022-07-04T00:40:32;1.37;;;0.80;;
13641;SDS011;6894;52.196;9.904;2022-07-04T00:43:00;2.03;;;0.70;;
13641;SDS011;6894;52.196;9.904;2022-07-04T00:45:27;1.00;;;0.67;;
13641;SDS011;6894;52.196;9.904;2022-07-04T00:47:55;1.67;;;0.70;;
13641;SDS011;6894;52.196;9.904;2022-07-04T00:50:22;1.67;;;0.60;;
13641;SDS011;6894;52.196;9.904;2022-07-04T00:52:49;0.97;;;0.60;;
13641;SDS011;6894;52.196;9.904;2022-07-04T00:55:17;1.93;;;0.80;;
13641;SDS011;6894;52.196;9.904;2022-07-04T00:57:45;2.03;;;0.73;;
13641;SDS011;6894;52.196;9.904;2022-07-04T01:00:12;3.23;;;0.90;;
13641;SDS011;6894;52.196;9.904;2022-07-04T01:02:39;0.70;;;0.70;;
13641;SDS011;6894;52.196;9.904;2022-07-04T01:05:07;1.50;;;0.77;;
13641;SDS011;6894;52.196;9.904;2022-07-04T01:07:35;2.27;;;0.80;;
13641;SDS011;6894;52.196;9.904;2022-07-04T01:10:02;1.10;;;0.90;;
13641;SDS011;6894;52.196;9.904;2022-07-04T01:12:29;1.37;;;0.80;;
13641;SDS011;6894;52.196;9.904;2022-07-04T01:14:57;0.97;;;0.70;;
13641;SDS011;6894;52.196;9.904;2022-07-04T01:17:24;0.87;;;0.70;;
13641;SDS011;6894;52.196;9.904;2022-07-04T01:19:51;1.10;;;1.00;;
13641;SDS011;6894;52.196;9.904;2022-07-04T01:22:19;2.63;;;0.73;;
13641;SDS011;6894;52.196;9.904;2022-07-04T01:24:47;1.17;;;0.70;;
13641;SDS011;6894;52.196;9.904;2022-07-04T01:27:14;0.70;;;0.70;;
13641;SDS011;6894;52.196;9.904;2022-07-04T01:29:41;1.97;;;0.90;;
13641;SDS011;6894;52.196;9.904;2022-07-04T01:32:08;1.57;;;0.70;;
13641;SDS011;6894;52.196;9.904;2022-07-04T01:34:36;3.27;;;1.13;;
13641;SDS011;6894;52.196;9.904;2022-07-04T01:37:04;1.47;;;0.80;;
13641;SDS011;6894;52.196;9.904;2022-07-04T01:39:32;1.33;;;0.90;;
13641;SDS011;6894;52.196;9.904;2022-07-04T01:41:59;2.53;;;1.00;;
13641;SDS011;6894;52.196;9.904;2022-07-04T01:44:25;1.73;;;0.80;;
13641;SDS011;6894;52.196;9.904;2022-07-04T01:46:52;1.23;;;0.90;;
13641;SDS011;6894;52.196;9.904;2022-07-04T01:49:19;2.10;;;1.00;;
13641;SDS011;6894;52.196;9.904;2022-07-04T01:51:46;1.50;;;1.03;;
13641;SDS011;6894;52.196;9.904;2022-07-04T01:54:14;1.83;;;0.90;;
13641;SDS011;6894;52.196;9.904;2022-07-04T01:56:43;1.50;;;1.07;;
13641;SDS011;6894;52.196;9.904;2022-07-04T01:59:10;4.47;;;0.90;;
13641;SDS011;6894;52.196;9.904;2022-07-04T02:01:36;2.90;;;1.10;;
13641;SDS011;6894;52.196;9.904;2022-07-04T02:04:04;2.20;;;1.00;;
13641;SDS011;6894;52.196;9.904;2022-07-04T02:06:32;1.03;;;0.93;;
13641;SDS011;6894;52.196;9.904;2022-07-04T02:08:59;2.10;;;0.90;;
13641;SDS011;6894;52.196;9.904;2022-07-04T02:11:42;2.30;;;1.00;;
13641;SDS011;6894;52.196;9.904;2022-07-04T02:14:27;1.67;;;0.90;;
13641;SDS011;6894;52.196;9.904;2022-07-04T02:16:54;2.60;;;1.10;;
13641;SDS011;6894;52.196;9.904;2022-07-04T02:19:21;2.10;;;0.90;;
13641;SDS011;6894;52.196;9.904;2022-07-04T02:21:48;2.03;;;1.40;;
13641;SDS011;6894;52.196;9.904;2022-07-04T02:24:15;2.20;;;1.07;;
13641;SDS011;6894;52.196;9.904;2022-07-04T02:26:43;1.47;;;1.10;;
13641;SDS011;6894;52.196;9.904;2022-07-04T02:29:10;2.00;;;1.30;;
13641;SDS011;6894;52.196;9.904;2022-07-04T02:31:37;2.63;;;1.30;;
13641;SDS011;6894;52.196;9.904;2022-07-04T02:34:03;2.87;;;1.00;;
13641;SDS011;6894;52.196;9.904;2022-07-04T02:36:30;2.23;;;0.90;;
13641;SDS011;6894;52.196;9.904;2022-07-04T02:38:57;1.83;;;1.40;;
13641;SDS011;6894;52.196;9.904;2022-07-04T02:41:24;2.27;;;1.20;;
13641;SDS011;6894;52.196;9.904;2022-07-04T02:43:52;3.20;;;1.23;;
13641;SDS011;6894;52.196;9.904;2022-07-04T02:46:18;1.07;;;1.00;;
13641;SDS011;6894;52.196;9.904;2022-07-04T02:48:45;1.37;;;1.10;;
13641;SDS011;6894;52.196;9.904;2022-07-04T02:51:12;2.33;;;1.20;;
13641;SDS011;6894;52.196;9.904;2022-07-04T02:53:39;3.03;;;1.13;;
13641;SDS011;6894;52.196;9.904;2022-07-04T02:56:05;1.40;;;1.30;;
13641;SDS011;6894;52.196;9.904;2022-07-04T02:58:32;3.03;;;1.50;;
13641;SDS011;6894;52.196;9.904;2022-07-04T03:01:00;1.50;;;1.10;;
13641;SDS011;6894;52.196;9.904;2022-07-04T03:03:27;2.13;;;1.30;;
13641;SDS011;6894;52.196;9.904;2022-07-04T03:05:54;1.63;;;0.97;;
13641;SDS011;6894;52.196;9.904;2022-07-04T03:08:21;1.57;;;1.00;;
13641;SDS011;6894;52.196;9.904;2022-07-04T03:10:48;3.37;;;1.50;;
13641;SDS011;6894;52.196;9.904;2022-07-04T03:13:16;2.97;;;1.30;;
13641;SDS011;6894;52.196;9.904;2022-07-04T03:15:43;1.90;;;1.37;;
13641;SDS011;6894;52.196;9.904;2022-07-04T03:18:11;1.20;;;1.10;;
13641;SDS011;6894;52.196;9.904;2022-07-04T03:20:38;1.20;;;1.10;;
13641;SDS011;6894;52.196;9.904;2022-07-04T03:23:05;4.53;;;1.30;;
13641;SDS011;6894;52.196;9.904;2022-07-04T03:25:32;1.27;;;1.17;;
13641;SDS011;6894;52.196;9.904;2022-07-04T03:27:59;1.10;;;0.90;;
13641;SDS011;6894;52.196;9.904;2022-07-04T03:30:25;1.83;;;1.17;;
13641;SDS011;6894;52.196;9.904;2022-07-04T03:32:52;1.13;;;0.93;;
13641;SDS011;6894;52.196;9.904;2022-07-04T03:35:20;2.47;;;1.33;;
13641;SDS011;6894;52.196;9.904;2022-07-04T03:37:47;1.83;;;1.30;;
13641;SDS011;6894;52.196;9.904;2022-07-04T03:40:14;1.33;;;0.83;;
13641;SDS011;6894;52.196;9.904;2022-07-04T03:42:41;2.73;;;1.20;;
13641;SDS011;6894;52.196;9.904;2022-07-04T03:45:08;1.80;;;1.17;;
13641;SDS011;6894;52.196;9.904;2022-07-04T03:47:35;1.60;;;1.20;;
13641;SDS011;6894;52.196;9.904;2022-07-04T03:50:03;1.80;;;1.20;;
13641;SDS011;6894;52.196;9.904;2022-07-04T03:52:31;2.83;;;1.60;;
13641;SDS011;6894;52.196;9.904;2022-07-04T03:54:58;1.67;;;1.20;;
13641;SDS011;6894;52.196;9.904;2022-07-04T03:57:25;2.10;;;1.20;;
13641;SDS011;6894;52.196;9.904;2022-07-04T03:59:52;2.33;;;1.00;;
13641;SDS011;6894;52.196;9.904;2022-07-04T04:02:19;1.37;;;1.10;;
13641;SDS011;6894;52.196;9.904;2022-07-04T04:04:46;1.73;;;1.13;;
13641;SDS011;6894;52.196;9.904;2022-07-04T04:07:31;2.07;;;1.20;;
13641;SDS011;6894;52.196;9.904;2022-07-04T04:09:58;2.30;;;1.00;;
13641;SDS011;6894;52.196;9.904;2022-07-04T04:12:25;1.10;;;1.00;;
13641;SDS011;6894;52.196;9.904;2022-07-04T04:14:51;1.83;;;1.10;;
13641;SDS011;6894;52.196;9.904;2022-07-04T04:17:18;1.73;;;1.17;;
13641;SDS011;6894;52.196;9.904;2022-07-04T04:19:45;3.27;;;1.43;;
13641;SDS011;6894;52.196;9.904;2022-07-04T04:22:12;2.87;;;1.20;;
13641;SDS011;6894;52.196;9.904;2022-07-04T04:24:40;2.77;;;1.57;;
13641;SDS011;6894;52.196;9.904;2022-07-04T04:27:06;2.20;;;1.00;;
13641;SDS011;6894;52.196;9.904;2022-07-04T04:29:33;2.10;;;1.33;;
13641;SDS011;6894;52.196;9.904;2022-07-04T04:32:00;3.37;;;1.30;;
13641;SDS011;6894;52.196;9.904;2022-07-04T04:34:27;3.43;;;1.77;;
13641;SDS011;6894;52.196;9.904;2022-07-04T04:36:54;5.03;;;1.77;;
13641;SDS011;6894;52.196;9.904;2022-07-04T04:39:20;3.90;;;1.70;;
13641;SDS011;6894;52.196;9.904;2022-07-04T04:41:49;1.53;;;1.27;;
13641;SDS011;6894;52.196;9.904;2022-07-04T04:44:15;3.53;;;2.17;;
13641;SDS011;6894;52.196;9.904;2022-07-04T04:46:46;1.87;;;1.60;;
13641;SDS011;6894;52.196;9.904;2022-07-04T04:49:13;3.33;;;1.87;;
13641;SDS011;6894;52.196;9.904;2022-07-04T04:51:40;2.73;;;1.63;;
13641;SDS011;6894;52.196;9.904;2022-07-04T04:54:07;2.67;;;1.83;;
13641;SDS011;6894;52.196;9.904;2022-07-04T04:56:34;3.50;;;1.80;;
13641;SDS011;6894;52.196;9.904;2022-07-04T04:59:02;2.77;;;2.07;;
13641;SDS011;6894;52.196;9.904;2022-07-04T05:01:29;2.60;;;1.80;;
13641;SDS011;6894;52.196;9.904;2022-07-04T05:03:56;3.63;;;2.00;;
13641;SDS011;6894;52.196;9.904;2022-07-04T05:06:22;4.70;;;1.80;;
13641;SDS011;6894;52.196;9.904;2022-07-04T05:08:49;2.23;;;1.67;;
13641;SDS011;6894;52.196;9.904;2022-07-04T05:11:16;2.50;;;1.77;;
13641;SDS011;6894;52.196;9.904;2022-07-04T05:13:43;2.57;;;2.00;;
13641;SDS011;6894;52.196;9.904;2022-07-04T05:16:11;3.23;;;2.10;;
13641;SDS011;6894;52.196;9.904;2022-07-04T05:18:38;3.03;;;2.20;;
13641;SDS011;6894;52.196;9.904;2022-07-04T05:21:04;3.30;;;2.00;;
13641;SDS011;6894;52.196;9.904;2022-07-04T05:23:31;4.77;;;2.23;;
13641;SDS011;6894;52.196;9.904;2022-07-04T05:25:58;5.13;;;2.30;;
13641;SDS011;6894;52.196;9.904;2022-07-04T05:28:25;5.20;;;2.73;;
13641;SDS011;6894;52.196;9.904;2022-07-04T05:30:52;5.33;;;2.70;;
13641;SDS011;6894;52.196;9.904;2022-07-04T05:33:20;3.93;;;2.90;;
13641;SDS011;6894;52.196;9.904;2022-07-04T05:35:47;4.57;;;2.73;;
13641;SDS011;6894;52.196;9.904;2022-07-04T05:38:13;5.77;;;2.83;;
13641;SDS011;6894;52.196;9.904;2022-07-04T05:40:40;5.53;;;3.60;;
13641;SDS011;6894;52.196;9.904;2022-07-04T05:43:07;4.27;;;3.87;;
13641;SDS011;6894;52.196;9.904;2022-07-04T05:45:35;4.23;;;3.67;;
13641;SDS011;6894;52.196;9.904;2022-07-04T05:48:02;4.43;;;3.53;;
13641;SDS011;6894;52.196;9.904;2022-07-04T05:50:30;3.80;;;3.33;;
13641;SDS011;6894;52.196;9.904;2022-07-04T05:52:57;5.33;;;3.80;;
13641;SDS011;6894;52.196;9.904;2022-07-04T05:55:24;3.80;;;3.50;;
13641;SDS011;6894;52.196;9.904;2022-07-04T05:57:51;6.23;;;4.50;;
13641;SDS011;6894;52.196;9.904;2022-07-04T06:00:18;6.00;;;4.77;;
13641;SDS011;6894;52.196;9.904;2022-07-04T06:02:45;6.23;;;4.60;;
13641;SDS011;6894;52.196;9.904;2022-07-04T06:05:11;5.60;;;4.20;;
13641;SDS011;6894;52.196;9.904;2022-07-04T06:07:40;5.53;;;4.73;;
13641;SDS011;6894;52.196;9.904;2022-07-04T06:10:07;5.40;;;4.70;;
13641;SDS011;6894;52.196;9.904;2022-07-04T06:12:34;5.63;;;5.13;;
13641;SDS011;6894;52.196;9.904;2022-07-04T06:15:01;5.40;;;5.00;;
13641;SDS011;6894;52.196;9.904;2022-07-04T06:17:28;5.87;;;4.27;;
13641;SDS011;6894;52.196;9.904;2022-07-04T06:19:55;6.90;;;6.20;;
13641;SDS011;6894;52.196;9.904;2022-07-04T06:22:21;6.07;;;5.30;;
13641;SDS011;6894;52.196;9.904;2022-07-04T06:24:49;5.73;;;5.07;;
13641;SDS011;6894;52.196;9.904;2022-07-04T06:27:16;4.80;;;4.30;;
13641;SDS011;6894;52.196;9.904;2022-07-04T06:29:43;5.67;;;4.20;;
13641;SDS011;6894;52.196;9.904;2022-07-04T06:32:10;4.23;;;3.80;;
13641;SDS011;6894;52.196;9.904;2022-07-04T06:34:36;4.27;;;3.97;;
13641;SDS011;6894;52.196;9.904;2022-07-04T06:37:20;5.30;;;4.80;;
13641;SDS011;6894;52.196;9.904;2022-07-04T06:39:47;4.37;;;3.97;;
13641;SDS011;6894;52.196;9.904;2022-07-04T06:42:15;4.40;;;4.00;;
13641;SDS011;6894;52.196;9.904;2022-07-04T06:44:42;5.20;;;3.50;;
13641;SDS011;6894;52.196;9.904;2022-07-04T06:47:09;5.60;;;3.20;;
13641;SDS011;6894;52.196;9.904;2022-07-04T06:49:36;5.33;;;3.83;;
13641;SDS011;6894;52.196;9.904;2022-07-04T06:52:03;4.70;;;3.33;;
13641;SDS011;6894;52.196;9.904;2022-07-04T06:54:30;4.90;;;3.20;;
13641;SDS011;6894;52.196;9.904;2022-07-04T06:56:58;4.27;;;3.13;;
13641;SDS011;6894;52.196;9.904;2022-07-04T06:59:25;6.30;;;3.50;;
13641;SDS011;6894;52.196;9.904;2022-07-04T07:01:52;5.40;;;3.13;;
13641;SDS011;6894;52.196;9.904;2022-07-04T07:04:18;4.27;;;2.80;;
13641;SDS011;6894;52.196;9.904;2022-07-04T07:06:45;3.83;;;3.47;;
13641;SDS011;6894;52.196;9.904;2022-07-04T07:09:12;4.70;;;2.57;;
13641;SDS011;6894;52.196;9.904;2022-07-04T07:11:39;3.20;;;2.20;;
13641;SDS011;6894;52.196;9.904;2022-07-04T07:14:07;2.77;;;2.20;;
13641;SDS011;6894;52.196;9.904;2022-07-04T07:16:33;3.37;;;2.10;;
13641;SDS011;6894;52.196;9.904;2022-07-04T07:19:00;2.77;;;1.73;;
13641;SDS011;6894;52.196;9.904;2022-07-04T07:21:27;4.30;;;2.60;;
13641;SDS011;6894;52.196;9.904;2022-07-04T07:23:54;5.30;;;2.60;;
13641;SDS011;6894;52.196;9.904;2022-07-04T07:26:21;4.17;;;1.73;;
13641;SDS011;6894;52.196;9.904;2022-07-04T07:28:47;1.70;;;1.60;;
13641;SDS011;6894;52.196;9.904;2022-07-04T07:31:15;2.07;;;1.40;;
13641;SDS011;6894;52.196;9.904;2022-07-04T07:33:42;3.50;;;1.63;;
13641;SDS011;6894;52.196;9.904;2022-07-04T07:36:09;1.97;;;1.40;;
13641;SDS011;6894;52.196;9.904;2022-07-04T07:38:36;2.53;;;1.40;;
13641;SDS011;6894;52.196;9.904;2022-07-04T07:41:02;2.80;;;1.23;;
13641;SDS011;6894;52.196;9.904;2022-07-04T07:43:29;2.63;;;1.27;;
13641;SDS011;6894;52.196;9.904;2022-07-04T07:45:56;2.97;;;1.20;;
13641;SDS011;6894;52.196;9.904;2022-07-04T07:48:24;3.30;;;2.73;;
13641;SDS011;6894;52.196;9.904;2022-07-04T07:50:52;2.43;;;1.63;;
13641;SDS011;6894;52.196;9.904;2022-07-04T07:53:19;2.23;;;1.40;;
13641;SDS011;6894;52.196;9.904;2022-07-04T07:55:46;1.50;;;1.27;;
13641;SDS011;6894;52.196;9.904;2022-07-04T07:58:13;3.07;;;1.60;;
13641;SDS011;6894;52.196;9.904;2022-07-04T08:00:39;2.30;;;1.33;;
13641;SDS011;6894;52.196;9.904;2022-07-04T08:03:06;2.70;;;1.47;;
13641;SDS011;6894;52.196;9.904;2022-07-04T08:05:52;3.33;;;1.43;;
13641;SDS011;6894;52.196;9.904;2022-07-04T08:08:19;2.87;;;1.07;;
13641;SDS011;6894;52.196;9.904;2022-07-04T08:10:47;1.97;;;1.33;;
13641;SDS011;6894;52.196;9.904;2022-07-04T08:13:14;6.67;;;1.70;;
13641;SDS011;6894;52.196;9.904;2022-07-04T08:15:41;3.40;;;1.07;;
13641;SDS011;6894;52.196;9.904;2022-07-04T08:18:07;2.43;;;1.10;;
13641;SDS011;6894;52.196;9.904;2022-07-04T08:20:34;2.57;;;1.20;;
13641;SDS011;6894;52.196;9.904;2022-07-04T08:23:02;2.63;;;1.53;;
13641;SDS011;6894;52.196;9.904;2022-07-04T08:25:29;2.97;;;1.03;;
13641;SDS011;6894;52.196;9.904;2022-07-04T08:27:56;1.23;;;0.80;;
13641;SDS011;6894;52.196;9.904;2022-07-04T08:30:23;3.97;;;0.97;;
13641;SDS011;6894;52.196;9.904;2022-07-04T08:32:50;2.50;;;1.00;;
13641;SDS011;6894;52.196;9.904;2022-07-04T08:35:17;3.30;;;1.30;;
13641;SDS011;6894;52.196;9.904;2022-07-04T08:37:43;2.67;;;1.33;;
13641;SDS011;6894;52.196;9.904;2022-07-04T08:40:12;4.40;;;1.53;;
13641;SDS011;6894;52.196;9.904;2022-07-04T08:42:39;1.90;;;1.03;;
13641;SDS011;6894;52.196;9.904;2022-07-04T08:45:06;3.10;;;0.93;;
13641;SDS011;6894;52.196;9.904;2022-07-04T08:47:34;2.33;;;1.13;;
13641;SDS011;6894;52.196;9.904;2022-07-04T08:50:07;2.57;;;1.10;;
13641;SDS011;6894;52.196;9.904;2022-07-04T08:52:36;1.60;;;1.10;;
13641;SDS011;6894;52.196;9.904;2022-07-04T08:55:05;2.60;;;1.00;;
13641;SDS011;6894;52.196;9.904;2022-07-04T08:57:52;1.57;;;0.80;;
13641;SDS011;6894;52.196;9.904;2022-07-04T09:00:37;0.70;;;0.70;;
13641;SDS011;6894;52.196;9.904;2022-07-04T09:03:04;1.57;;;1.00;;
13641;SDS011;6894;52.196;9.904;2022-07-04T09:05:32;5.87;;;1.20;;
13641;SDS011;6894;52.196;9.904;2022-07-04T09:07:59;1.40;;;0.80;;
13641;SDS011;6894;52.196;9.904;2022-07-04T09:10:27;1.43;;;0.90;;
13641;SDS011;6894;52.196;9.904;2022-07-04T09:12:55;1.93;;;0.83;;
13641;SDS011;6894;52.196;9.904;2022-07-04T09:15:22;1.50;;;1.00;;
13641;SDS011;6894;52.196;9.904;2022-07-04T09:17:50;3.00;;;1.00;;
13641;SDS011;6894;52.196;9.904;2022-07-04T09:20:18;1.70;;;0.80;;
13641;SDS011;6894;52.196;9.904;2022-07-04T09:22:47;1.93;;;0.60;;
13641;SDS011;6894;52.196;9.904;2022-07-04T09:25:15;1.33;;;0.80;;
13641;SDS011;6894;52.196;9.904;2022-07-04T09:27:44;1.47;;;0.53;;
13641;SDS011;6894;52.196;9.904;2022-07-04T09:30:14;0.67;;;0.50;;
13641;SDS011;6894;52.196;9.904;2022-07-04T09:32:43;1.40;;;0.60;;
13641;SDS011;6894;52.196;9.904;2022-07-04T09:35:11;1.13;;;0.60;;
13641;SDS011;6894;52.196;9.904;2022-07-04T09:37:42;1.77;;;0.50;;
13641;SDS011;6894;52.196;9.904;2022-07-04T09:40:20;1.07;;;0.63;;
13641;SDS011;6894;52.196;9.904;2022-07-04T09:42:48;1.73;;;0.60;;
13641;SDS011;6894;52.196;9.904;2022-07-04T09:45:16;1.47;;;0.47;;
13641;SDS011;6894;52.196;9.904;2022-07-04T09:47:46;1.27;;;0.60;;
13641;SDS011;6894;52.196;9.904;2022-07-04T09:50:14;1.20;;;0.60;;
13641;SDS011;6894;52.196;9.904;2022-07-04T09:52:46;1.70;;;0.60;;
13641;SDS011;6894;52.196;9.904;2022-07-04T09:55:19;1.43;;;0.47;;
13641;SDS011;6894;52.196;9.904;2022-07-04T09:57:48;0.70;;;0.30;;
13641;SDS011;6894;52.196;9.904;2022-07-04T10:00:17;1.25;;;0.43;;
13641;SDS011;6894;52.196;9.904;2022-07-04T10:02:45;0.50;;;0.50;;
13641;SDS011;6894;52.196;9.904;2022-07-04T10:05:16;1.63;;;0.40;;
13641;SDS011;6894;52.196;9.904;2022-07-04T10:07:46;5.53;;;0.80;;
13641;SDS011;6894;52.196;9.904;2022-07-04T10:10:24;4.90;;;0.70;;
13641;SDS011;6894;52.196;9.904;2022-07-04T10:13:00;0.57;;;0.30;;
13641;SDS011;6894;52.196;9.904;2022-07-04T10:15:30;1.53;;;0.37;;
13641;SDS011;6894;52.196;9.904;2022-07-04T10:17:58;1.03;;;0.60;;
13641;SDS011;6894;52.196;9.904;2022-07-04T10:20:25;1.07;;;0.60;;
13641;SDS011;6894;52.196;9.904;2022-07-04T10:22:52;1.02;;;0.40;;
13641;SDS011;6894;52.196;9.904;2022-07-04T10:25:19;0.75;;;0.50;;
13641;SDS011;6894;52.196;9.904;2022-07-04T10:27:46;0.80;;;0.40;;
13641;SDS011;6894;52.196;9.904;2022-07-04T10:30:17;0.70;;;0.50;;
13641;SDS011;6894;52.196;9.904;2022-07-04T10:32:50;0.73;;;0.30;;
13641;SDS011;6894;52.196;9.904;2022-07-04T10:38:22;0.60;;;0.30;;
13641;SDS011;6894;52.196;9.904;2022-07-04T10:40:50;0.95;;;0.50;;
13641;SDS011;6894;52.196;9.904;2022-07-04T10:43:36;1.52;;;0.40;;
13641;SDS011;6894;52.196;9.904;2022-07-04T10:46:29;0.85;;;0.40;;
13641;SDS011;6894;52.196;9.904;2022-07-04T10:49:03;1.05;;;0.32;;
13641;SDS011;6894;52.196;9.904;2022-07-04T10:51:35;0.80;;;0.40;;
13641;SDS011;6894;52.196;9.904;2022-07-04T10:54:06;1.65;;;0.40;;
13641;SDS011;6894;52.196;9.904;2022-07-04T10:56:36;1.02;;;0.52;;
13641;SDS011;6894;52.196;9.904;2022-07-04T10:59:08;3.30;;;0.40;;
13641;SDS011;6894;52.196;9.904;2022-07-04T11:01:39;1.33;;;0.43;;
13641;SDS011;6894;52.196;9.904;2022-07-04T11:04:13;1.75;;;0.45;;
13641;SDS011;6894;52.196;9.904;2022-07-04T11:07:00;2.30;;;0.47;;
13641;SDS011;6894;52.196;9.904;2022-07-04T11:09:27;1.25;;;0.30;;
13641;SDS011;6894;52.196;9.904;2022-07-04T11:11:55;3.08;;;0.50;;
13641;SDS011;6894;52.196;9.904;2022-07-04T11:14:30;0.95;;;0.47;;
13641;SDS011;6894;52.196;9.904;2022-07-04T11:16:58;0.50;;;0.32;;
13641;SDS011;6894;52.196;9.904;2022-07-04T11:19:26;12.77;;;0.95;;
13641;SDS011;6894;52.196;9.904;2022-07-04T11:21:53;1.27;;;0.68;;
13641;SDS011;6894;52.196;9.904;2022-07-04T11:24:21;2.45;;;0.40;;
13641;SDS011;6894;52.196;9.904;2022-07-04T11:26:47;0.55;;;0.38;;
13641;SDS011;6894;52.196;9.904;2022-07-04T11:29:14;0.55;;;0.40;;
13641;SDS011;6894;52.196;9.904;2022-07-04T11:31:42;3.88;;;0.50;;
13641;SDS011;6894;52.196;9.904;2022-07-04T11:34:10;0.90;;;0.30;;
13641;SDS011;6894;52.196;9.904;2022-07-04T11:36:39;0.45;;;0.30;;
13641;SDS011;6894;52.196;9.904;2022-07-04T11:39:07;0.30;;;0.30;;
13641;SDS011;6894;52.196;9.904;2022-07-04T11:41:37;1.63;;;0.45;;
13641;SDS011;6894;52.196;9.904;2022-07-04T11:44:23;2.03;;;0.77;;
13641;SDS011;6894;52.196;9.904;2022-07-04T11:47:12;1.85;;;0.50;;
13641;SDS011;6894;52.196;9.904;2022-07-04T11:49:42;1.35;;;0.50;;
13641;SDS011;6894;52.196;9.904;2022-07-04T11:52:12;1.75;;;0.60;;
13641;SDS011;6894;52.196;9.904;2022-07-04T11:54:40;0.68;;;0.50;;
13641;SDS011;6894;52.196;9.904;2022-07-04T11:57:08;2.33;;;0.65;;
13641;SDS011;6894;52.196;9.904;2022-07-04T11:59:43;0.70;;;0.40;;
13641;SDS011;6894;52.196;9.904;2022-07-04T12:02:18;1.40;;;0.40;;
13641;SDS011;6894;52.196;9.904;2022-07-04T12:04:44;0.52;;;0.40;;
13641;SDS011;6894;52.196;9.904;2022-07-04T12:07:13;0.40;;;0.40;;
13641;SDS011;6894;52.196;9.904;2022-07-04T12:09:43;1.15;;;0.57;;
13641;SDS011;6894;52.196;9.904;2022-07-04T12:12:11;1.42;;;0.40;;
13641;SDS011;6894;52.196;9.904;2022-07-04T12:14:39;2.25;;;0.40;;
13641;SDS011;6894;52.196;9.904;2022-07-04T12:17:10;0.68;;;0.40;;
13641;SDS011;6894;52.196;9.904;2022-07-04T12:19:49;1.00;;;0.40;;
13641;SDS011;6894;52.196;9.904;2022-07-04T12:22:32;0.47;;;0.30;;
13641;SDS011;6894;52.196;9.904;2022-07-04T12:25:05;1.70;;;0.57;;
13641;SDS011;6894;52.196;9.904;2022-07-04T12:27:35;1.30;;;0.40;;
13641;SDS011;6894;52.196;9.904;2022-07-04T12:30:02;1.85;;;0.50;;
13641;SDS011;6894;52.196;9.904;2022-07-04T12:32:49;1.00;;;0.38;;
13641;SDS011;6894;52.196;9.904;2022-07-04T12:35:40;0.65;;;0.35;;
13641;SDS011;6894;52.196;9.904;2022-07-04T12:38:11;0.38;;;0.30;;
13641;SDS011;6894;52.196;9.904;2022-07-04T12:40:52;0.32;;;0.30;;
13641;SDS011;6894;52.196;9.904;2022-07-04T12:43:21;1.10;;;0.50;;
13641;SDS011;6894;52.196;9.904;2022-07-04T12:45:49;1.25;;;0.55;;
13641;SDS011;6894;52.196;9.904;2022-07-04T12:48:20;3.38;;;0.63;;
13641;SDS011;6894;52.196;9.904;2022-07-04T12:50:49;2.38;;;0.30;;
13641;SDS011;6894;52.196;9.904;2022-07-04T12:53:19;1.05;;;0.40;;
13641;SDS011;6894;52.196;9.904;2022-07-04T12:55:46;1.73;;;0.45;;
13641;SDS011;6894;52.196;9.904;2022-07-04T12:58:14;1.83;;;0.47;;
13641;SDS011;6894;52.196;9.904;2022-07-04T13:00:42;0.90;;;0.30;;
13641;SDS011;6894;52.196;9.904;2022-07-04T13:03:09;1.10;;;0.75;;
13641;SDS011;6894;52.196;9.904;2022-07-04T13:05:36;0.70;;;0.30;;
13641;SDS011;6894;52.196;9.904;2022-07-04T13:08:03;1.27;;;0.28;;
13641;SDS011;6894;52.196;9.904;2022-07-04T13:10:32;1.75;;;0.35;;
13641;SDS011;6894;52.196;9.904;2022-07-04T13:13:00;1.70;;;0.50;;
13641;SDS011;6894;52.196;9.904;2022-07-04T13:15:27;0.88;;;0.60;;
13641;SDS011;6894;52.196;9.904;2022-07-04T13:17:54;1.23;;;0.40;;
13641;SDS011;6894;52.196;9.904;2022-07-04T13:20:21;2.25;;;0.40;;
13641;SDS011;6894;52.196;9.904;2022-07-04T13:22:48;1.13;;;0.40;;
13641;SDS011;6894;52.196;9.904;2022-07-04T13:25:14;0.70;;;0.28;;
13641;SDS011;6894;52.196;9.904;2022-07-04T13:27:43;1.45;;;0.50;;
13641;SDS011;6894;52.196;9.904;2022-07-04T13:30:10;1.30;;;0.35;;
13641;SDS011;6894;52.196;9.904;2022-07-04T13:32:38;1.27;;;0.40;;
13641;SDS011;6894;52.196;9.904;2022-07-04T13:35:05;2.17;;;0.55;;
13641;SDS011;6894;52.196;9.904;2022-07-04T13:37:33;2.05;;;0.50;;
13641;SDS011;6894;52.196;9.904;2022-07-04T13:40:00;1.05;;;0.40;;
13641;SDS011;6894;52.196;9.904;2022-07-04T13:42:27;1.20;;;0.30;;
13641;SDS011;6894;52.196;9.904;2022-07-04T13:45:13;0.50;;;0.40;;
13641;SDS011;6894;52.196;9.904;2022-07-04T13:47:44;0.40;;;0.30;;
13641;SDS011;6894;52.196;9.904;2022-07-04T13:50:11;1.45;;;0.50;;
13641;SDS011;6894;52.196;9.904;2022-07-04T13:52:38;1.88;;;0.40;;
13641;SDS011;6894;52.196;9.904;2022-07-04T13:55:05;0.30;;;0.30;;
13641;SDS011;6894;52.196;9.904;2022-07-04T13:57:33;0.50;;;0.50;;
13641;SDS011;6894;52.196;9.904;2022-07-04T14:00:00;1.40;;;0.40;;
13641;SDS011;6894;52.196;9.904;2022-07-04T14:02:28;1.88;;;0.50;;
13641;SDS011;6894;52.196;9.904;2022-07-04T14:04:55;2.38;;;0.50;;
13641;SDS011;6894;52.196;9.904;2022-07-04T14:07:25;1.55;;;0.43;;
13641;SDS011;6894;52.196;9.904;2022-07-04T14:09:53;1.20;;;0.50;;
13641;SDS011;6894;52.196;9.904;2022-07-04T14:12:19;0.80;;;0.50;;
13641;SDS011;6894;52.196;9.904;2022-07-04T14:14:46;1.23;;;0.47;;
13641;SDS011;6894;52.196;9.904;2022-07-04T14:17:13;0.52;;;0.40;;
13641;SDS011;6894;52.196;9.904;2022-07-04T14:19:41;2.90;;;0.60;;
13641;SDS011;6894;52.196;9.904;2022-07-04T14:22:08;1.17;;;0.63;;
13641;SDS011;6894;52.196;9.904;2022-07-04T14:24:35;0.93;;;0.40;;
13641;SDS011;6894;52.196;9.904;2022-07-04T14:27:01;1.15;;;0.50;;
13641;SDS011;6894;52.196;9.904;2022-07-04T14:29:28;1.25;;;0.50;;
13641;SDS011;6894;52.196;9.904;2022-07-04T14:31:55;1.25;;;0.32;;
13641;SDS011;6894;52.196;9.904;2022-07-04T14:34:22;1.23;;;0.50;;
13641;SDS011;6894;52.196;9.904;2022-07-04T14:36:50;4.18;;;0.63;;
13641;SDS011;6894;52.196;9.904;2022-07-04T14:39:17;3.83;;;0.77;;
13641;SDS011;6894;52.196;9.904;2022-07-04T14:41:45;0.52;;;0.50;;
13641;SDS011;6894;52.196;9.904;2022-07-04T14:44:14;0.90;;;0.40;;
13641;SDS011;6894;52.196;9.904;2022-07-04T14:46:40;1.15;;;0.60;;
13641;SDS011;6894;52.196;9.904;2022-07-04T14:49:07;1.02;;;0.52;;
13641;SDS011;6894;52.196;9.904;2022-07-04T14:51:34;1.17;;;0.40;;
13641;SDS011;6894;52.196;9.904;2022-07-04T14:54:04;1.23;;;0.40;;
13641;SDS011;6894;52.196;9.904;2022-07-04T14:56:31;1.80;;;0.70;;
13641;SDS011;6894;52.196;9.904;2022-07-04T14:58:58;1.45;;;0.90;;
13641;SDS011;6894;52.196;9.904;2022-07-04T15:01:25;7.07;;;0.75;;
13641;SDS011;6894;52.196;9.904;2022-07-04T15:03:52;2.03;;;0.47;;
13641;SDS011;6894;52.196;9.904;2022-07-04T15:06:19;0.40;;;0.40;;
13641;SDS011;6894;52.196;9.904;2022-07-04T15:08:45;1.55;;;0.50;;
13641;SDS011;6894;52.196;9.904;2022-07-04T15:11:13;1.50;;;0.70;;